Time;durP1;ratioP1;P1;durP2;ratioP2;P2;SDS_P1;SDS_P2;PMS_P1;PMS_P2;Temp;Humidity;BMP_temperature;BMP_pressure;BME280_temperature;BME280_humidity;BME280_pressure;Samples;Min_cycle;Max_cycle;Signal;HPM_P1;HPM_P2
2021/01/25 00:00:36;;;;;;;13.35;8.00;;;5.90;94.80;;;;;;5054019;28;20044;-70
2021/01/25 00:03:02;;;;;;;16.50;8.52;;;5.90;94.90;;;;;;5053917;28;20029;-71
2021/01/25 00:05:27;;;;;;;16.10;9.43;;;5.90;94.90;;;;;;5055273;28;20020;-70
2021/01/25 00:07:53;;;;;;;16.23;9.30;;;5.90;94.90;;;;;;5065558;28;20358;-70
2021/01/25 00:10:19;;;;;;;15.70;8.85;;;5.90;94.90;;;;;;5071058;28;20534;-70
2021/01/25 00:12:44;;;;;;;16.65;8.93;;;5.90;95.00;;;;;;5062935;28;20063;-70
2021/01/25 00:15:10;;;;;;;17.33;9.20;;;5.90;95.00;;;;;;5057249;28;20452;-71
2021/01/25 00:17:35;;;;;;;14.48;8.10;;;5.90;95.00;;;;;;5064265;28;20025;-71
2021/01/25 00:20:01;;;;;;;15.95;8.63;;;5.90;95.00;;;;;;5055205;28;20044;-71
2021/01/25 00:22:27;;;;;;;16.33;8.93;;;5.90;95.00;;;;;;5062006;28;20025;-71
2021/01/25 00:24:53;;;;;;;14.98;8.68;;;5.90;95.00;;;;;;5054689;28;20102;-71
2021/01/25 00:27:19;;;;;;;18.20;9.38;;;5.90;95.10;;;;;;5069666;28;20438;-72
2021/01/25 00:29:44;;;;;;;19.60;10.00;;;5.90;95.10;;;;;;5053078;28;20140;-71
2021/01/25 00:32:10;;;;;;;17.35;9.63;;;5.90;95.10;;;;;;5053235;28;20029;-71
2021/01/25 00:34:38;;;;;;;16.73;8.68;;;5.90;95.10;;;;;;5055444;28;20024;-71
2021/01/25 00:37:04;;;;;;;16.15;8.48;;;6.00;95.10;;;;;;5068410;28;20033;-71
2021/01/25 00:39:29;;;;;;;19.77;9.88;;;6.00;95.10;;;;;;5051304;28;20417;-71
2021/01/25 00:41:54;;;;;;;15.15;8.07;;;6.00;95.10;;;;;;5070341;28;20370;-71
2021/01/25 00:44:20;;;;;;;15.23;8.57;;;6.00;95.10;;;;;;5053102;28;20037;-71
2021/01/25 00:46:45;;;;;;;13.80;8.05;;;6.00;95.10;;;;;;5051947;28;20033;-71
2021/01/25 00:49:11;;;;;;;13.52;8.02;;;6.00;95.10;;;;;;5052371;28;20112;-71
2021/01/25 00:51:36;;;;;;;14.68;8.25;;;6.00;95.20;;;;;;5067883;28;20029;-71
2021/01/25 00:54:02;;;;;;;14.50;8.27;;;6.00;95.20;;;;;;5062721;28;20035;-70
2021/01/25 00:56:27;;;;;;;12.93;7.15;;;6.00;95.10;;;;;;5061957;28;20469;-71
2021/01/25 00:58:53;;;;;;;13.02;7.25;;;6.00;95.10;;;;;;5054291;28;20425;-70
2021/01/25 01:01:18;;;;;;;13.63;7.22;;;6.00;95.10;;;;;;5052730;28;20147;-70
2021/01/25 01:03:44;;;;;;;15.88;7.85;;;6.00;95.10;;;;;;5052882;28;20021;-72
2021/01/25 01:06:09;;;;;;;15.23;7.95;;;6.00;95.10;;;;;;5061302;28;20056;-72
2021/01/25 01:08:35;;;;;;;13.82;7.70;;;6.00;95.20;;;;;;5052319;28;20025;-72
2021/01/25 01:11:00;;;;;;;14.38;7.45;;;6.00;95.10;;;;;;5063339;28;20158;-71
2021/01/25 01:13:26;;;;;;;13.20;7.85;;;6.00;95.10;;;;;;5054005;28;20033;-72
2021/01/25 01:15:52;;;;;;;14.02;7.88;;;6.00;95.10;;;;;;5052649;28;20047;-72
2021/01/25 01:18:17;;;;;;;13.13;8.20;;;6.00;95.10;;;;;;5052136;28;20025;-71
2021/01/25 01:20:43;;;;;;;12.38;6.95;;;6.10;95.10;;;;;;5052034;28;20417;-71
2021/01/25 01:23:08;;;;;;;15.10;8.18;;;6.10;95.00;;;;;;5052073;28;20025;-71
2021/01/25 01:25:34;;;;;;;15.05;7.90;;;6.10;95.10;;;;;;5059490;28;20029;-72
2021/01/25 01:28:00;;;;;;;12.68;7.55;;;6.10;95.00;;;;;;5057471;28;20480;-70
2021/01/25 01:30:25;;;;;;;13.15;7.75;;;6.10;95.00;;;;;;5052312;28;20040;-71
2021/01/25 01:32:51;;;;;;;13.82;6.93;;;6.10;94.90;;;;;;5052583;28;20025;-71
2021/01/25 01:35:16;;;;;;;15.23;8.30;;;6.10;94.90;;;;;;5050366;28;20116;-71
2021/01/25 01:37:42;;;;;;;13.15;8.13;;;6.00;94.80;;;;;;5052370;28;20059;-70
2021/01/25 01:40:10;;;;;;;15.30;8.43;;;6.00;94.80;;;;;;5057291;28;20039;-70
2021/01/25 01:42:36;;;;;;;14.48;8.25;;;6.00;94.80;;;;;;5062429;28;20056;-71
2021/01/25 01:45:04;;;;;;;16.55;9.13;;;6.00;94.80;;;;;;5051857;28;20052;-71
2021/01/25 01:47:30;;;;;;;14.27;8.80;;;6.00;95.00;;;;;;5063347;28;20123;-70
2021/01/25 01:49:56;;;;;;;17.20;9.68;;;5.90;94.80;;;;;;5063806;28;20033;-71
2021/01/25 01:52:22;;;;;;;15.57;9.40;;;6.00;94.90;;;;;;5051651;28;20017;-70
2021/01/25 01:54:49;;;;;;;15.65;9.20;;;6.00;94.90;;;;;;5052768;28;20385;-71
2021/01/25 01:57:23;;;;;;;17.40;9.80;;;5.90;94.80;;;;;;5127501;27;20378;-70
2021/01/25 01:59:49;;;;;;;15.68;9.52;;;5.90;94.80;;;;;;5124123;28;20088;-71
2021/01/25 02:02:15;;;;;;;17.02;9.65;;;5.90;94.70;;;;;;5129300;28;20051;-70
2021/01/25 02:04:40;;;;;;;17.08;9.05;;;5.80;94.70;;;;;;5124150;28;20044;-71
2021/01/25 02:07:12;;;;;;;17.65;9.80;;;5.80;94.70;;;;;;5129025;28;20030;-71
2021/01/25 02:09:41;;;;;;;16.73;10.52;;;5.80;94.60;;;;;;5111327;28;20123;-71
2021/01/25 02:12:08;;;;;;;17.25;10.75;;;5.80;94.50;;;;;;5084047;28;20027;-71
2021/01/25 02:14:36;;;;;;;17.48;10.70;;;5.80;94.60;;;;;;5105876;28;20524;-71
2021/01/25 02:17:02;;;;;;;18.35;9.95;;;5.80;94.50;;;;;;5087816;28;20036;-71
2021/01/25 02:19:41;;;;;;;18.85;11.07;;;5.80;94.40;;;;;;5103960;28;20031;-71
2021/01/25 02:22:36;;;;;;;18.45;10.45;;;5.80;94.50;;;;;;5093727;28;20028;-70
2021/01/25 02:25:03;;;;;;;22.25;10.77;;;5.70;94.50;;;;;;5058370;28;20041;-70
2021/01/25 02:27:41;;;;;;;18.50;10.45;;;5.70;94.40;;;;;;5080971;28;20032;-70
2021/01/25 02:30:07;;;;;;;16.83;10.05;;;5.70;94.50;;;;;;5085043;28;20103;-71
2021/01/25 02:32:35;;;;;;;17.10;10.07;;;5.60;94.40;;;;;;5085878;28;20029;-70
2021/01/25 02:35:03;;;;;;;17.23;11.07;;;5.60;94.40;;;;;;5108356;28;20024;-72
2021/01/25 02:37:30;;;;;;;18.80;11.57;;;5.60;94.30;;;;;;5089459;28;20040;-72
2021/01/25 02:39:57;;;;;;;18.10;10.40;;;5.60;94.30;;;;;;5094352;28;20025;-72
2021/01/25 02:42:25;;;;;;;18.90;11.40;;;5.50;94.30;;;;;;5080921;28;20389;-72
2021/01/25 02:44:51;;;;;;;20.08;10.98;;;5.50;94.30;;;;;;5098640;28;20039;-71
2021/01/25 02:47:19;;;;;;;19.38;10.80;;;5.50;94.30;;;;;;5085644;28;20035;-71
2021/01/25 02:49:45;;;;;;;19.48;11.00;;;5.50;94.30;;;;;;5108033;28;20027;-72
2021/01/25 02:52:12;;;;;;;18.45;11.18;;;5.40;94.20;;;;;;5091380;28;22106;-71
2021/01/25 02:54:38;;;;;;;19.83;11.70;;;5.40;94.30;;;;;;5106191;28;20024;-72
2021/01/25 02:57:06;;;;;;;21.15;11.80;;;5.40;94.30;;;;;;5086397;28;20048;-72
2021/01/25 02:59:32;;;;;;;19.08;11.77;;;5.40;94.30;;;;;;5102341;28;20063;-71
2021/01/25 03:01:58;;;;;;;18.77;10.93;;;5.40;94.30;;;;;;5077040;28;20060;-72
2021/01/25 03:04:25;;;;;;;17.83;10.80;;;5.40;94.30;;;;;;5067325;28;20025;-72
2021/01/25 03:06:51;;;;;;;19.88;11.27;;;5.30;94.30;;;;;;5070169;28;20111;-72
2021/01/25 03:09:16;;;;;;;22.23;12.30;;;5.30;94.40;;;;;;5073066;28;20131;-72
2021/01/25 03:11:42;;;;;;;19.70;11.30;;;5.30;94.40;;;;;;5072192;28;20047;-72
2021/01/25 03:14:08;;;;;;;18.77;11.05;;;5.30;94.40;;;;;;5072197;28;20017;-72
2021/01/25 03:16:34;;;;;;;21.30;11.50;;;5.30;94.50;;;;;;5070407;28;20524;-72
2021/01/25 03:19:00;;;;;;;18.90;11.07;;;5.20;94.50;;;;;;5064933;28;20021;-72
2021/01/25 03:21:26;;;;;;;17.75;9.90;;;5.20;94.60;;;;;;5061509;28;20020;-75
2021/01/25 03:23:52;;;;;;;18.25;10.43;;;5.30;94.50;;;;;;5073371;28;20055;-68
2021/01/25 03:26:18;;;;;;;20.85;11.38;;;5.20;94.60;;;;;;5072977;28;20488;-67
2021/01/25 03:28:43;;;;;;;18.17;10.63;;;5.20;94.60;;;;;;5094166;28;20472;-67
2021/01/25 03:31:09;;;;;;;20.48;11.07;;;5.20;94.60;;;;;;5071505;28;20029;-66
2021/01/25 03:33:34;;;;;;;15.02;9.07;;;5.20;94.60;;;;;;5073833;28;20031;-66
2021/01/25 03:36:00;;;;;;;17.73;9.98;;;5.30;94.50;;;;;;5085677;28;20503;-67
2021/01/25 03:38:25;;;;;;;18.88;9.93;;;5.20;94.50;;;;;;5070753;28;20017;-67
2021/01/25 03:40:51;;;;;;;18.60;9.75;;;5.20;94.50;;;;;;5060879;28;20485;-67
2021/01/25 03:43:16;;;;;;;14.57;9.38;;;5.10;94.50;;;;;;5073487;28;20031;-67
2021/01/25 03:45:42;;;;;;;15.90;9.57;;;5.20;94.40;;;;;;5071939;28;20459;-67
2021/01/25 03:48:08;;;;;;;15.00;8.95;;;5.20;94.50;;;;;;5071728;28;20070;-67
2021/01/25 03:50:34;;;;;;;16.08;9.63;;;5.30;94.50;;;;;;5084367;28;20028;-67
2021/01/25 03:53:00;;;;;;;16.98;8.45;;;5.30;94.40;;;;;;5070183;28;20119;-67
2021/01/25 03:55:26;;;;;;;14.48;8.73;;;5.30;94.30;;;;;;5079919;28;20052;-67
2021/01/25 03:57:51;;;;;;;15.27;8.52;;;5.30;94.10;;;;;;5078520;28;20024;-68
2021/01/25 04:00:20;;;;;;;16.35;9.38;;;5.30;94.10;;;;;;5077636;28;20096;-67
2021/01/25 04:02:45;;;;;;;14.48;8.00;;;5.30;94.10;;;;;;5066373;28;20048;-67
2021/01/25 04:05:11;;;;;;;12.73;7.85;;;5.30;94.00;;;;;;5072945;28;20025;-67
2021/01/25 04:07:36;;;;;;;13.35;7.90;;;5.30;94.10;;;;;;5069964;28;20022;-68
2021/01/25 04:10:03;;;;;;;16.58;9.73;;;5.30;94.00;;;;;;5052717;28;20032;-67
2021/01/25 04:12:29;;;;;;;16.90;8.75;;;5.30;94.00;;;;;;5067081;28;20095;-68
2021/01/25 04:14:54;;;;;;;17.27;9.25;;;5.30;94.10;;;;;;5070437;28;20040;-68
2021/01/25 04:17:20;;;;;;;14.45;8.82;;;5.30;94.10;;;;;;5070369;28;20530;-68
2021/01/25 04:19:45;;;;;;;13.90;9.00;;;5.30;94.10;;;;;;5091804;28;20028;-67
2021/01/25 04:22:11;;;;;;;18.25;9.70;;;5.30;94.00;;;;;;5077318;28;20101;-67
2021/01/25 04:24:36;;;;;;;15.45;9.00;;;5.30;93.90;;;;;;5091084;28;20024;-67
2021/01/25 04:27:02;;;;;;;14.45;8.38;;;5.30;93.90;;;;;;5073722;28;20021;-67
2021/01/25 04:29:27;;;;;;;16.15;9.30;;;5.30;93.90;;;;;;5070861;28;20032;-67
2021/01/25 04:31:53;;;;;;;18.83;9.50;;;5.30;93.90;;;;;;5074251;28;20455;-67
2021/01/25 04:34:18;;;;;;;18.60;10.30;;;5.40;94.00;;;;;;5072304;28;20097;-67
2021/01/25 04:36:44;;;;;;;16.33;9.50;;;5.30;94.00;;;;;;5072157;28;20504;-68
2021/01/25 04:39:09;;;;;;;16.88;10.70;;;5.40;94.00;;;;;;5070693;28;20039;-67
2021/01/25 04:41:35;;;;;;;20.83;10.52;;;5.30;94.00;;;;;;5062395;28;20107;-67
2021/01/25 04:44:01;;;;;;;17.98;9.85;;;5.30;94.10;;;;;;5071141;28;20024;-67
2021/01/25 04:46:27;;;;;;;17.15;9.60;;;5.40;94.10;;;;;;5072227;28;20067;-67
2021/01/25 04:48:53;;;;;;;15.77;9.63;;;5.30;94.10;;;;;;5072032;28;20036;-67
2021/01/25 04:51:21;;;;;;;17.50;10.32;;;5.40;94.20;;;;;;5070544;28;20095;-68
2021/01/25 04:53:47;;;;;;;18.50;10.43;;;5.40;94.20;;;;;;5075524;28;20073;-67
2021/01/25 04:56:14;;;;;;;17.58;10.50;;;5.40;94.20;;;;;;5083347;28;20045;-67
2021/01/25 04:58:40;;;;;;;18.27;10.75;;;5.40;94.10;;;;;;5073008;28;20032;-68
2021/01/25 05:01:05;;;;;;;18.17;10.63;;;5.50;94.10;;;;;;5086638;28;20777;-68
2021/01/25 05:03:31;;;;;;;19.00;11.07;;;5.40;94.00;;;;;;5072674;28;20028;-68
2021/01/25 05:05:56;;;;;;;19.35;11.10;;;5.50;94.10;;;;;;5087432;28;20321;-67
2021/01/25 05:08:22;;;;;;;20.90;10.82;;;5.40;94.10;;;;;;5070167;28;20033;-67
2021/01/25 05:10:47;;;;;;;20.35;11.25;;;5.40;94.10;;;;;;5087167;28;20070;-67
2021/01/25 05:13:21;;;;;;;21.63;11.73;;;5.40;94.10;;;;;;5080489;28;20032;-67
2021/01/25 05:15:49;;;;;;;21.63;11.60;;;5.40;94.10;;;;;;5069238;28;20072;-67
2021/01/25 05:18:22;;;;;;;22.45;11.88;;;5.40;94.10;;;;;;5080004;28;20047;-66
2021/01/25 05:20:57;;;;;;;20.33;10.82;;;5.40;94.10;;;;;;5089758;28;20419;-67
2021/01/25 05:23:23;;;;;;;21.17;12.57;;;5.50;94.10;;;;;;5083473;28;20396;-67
2021/01/25 05:25:49;;;;;;;24.65;13.65;;;5.50;94.10;;;;;;5089399;28;20465;-67
2021/01/25 05:28:19;;;;;;;24.15;12.65;;;5.50;94.10;;;;;;5084807;28;20119;-67
2021/01/25 05:30:45;;;;;;;20.95;12.27;;;5.50;94.00;;;;;;5068612;28;20040;-67
2021/01/25 05:33:11;;;;;;;22.17;12.68;;;5.50;94.00;;;;;;5081027;28;20165;-67
2021/01/25 05:35:37;;;;;;;22.95;12.73;;;5.60;94.00;;;;;;5091963;28;20115;-67
2021/01/25 05:38:05;;;;;;;20.45;11.70;;;5.50;94.00;;;;;;5081181;28;20517;-67
2021/01/25 05:40:36;;;;;;;21.85;13.18;;;5.50;94.00;;;;;;5075887;28;20036;-67
2021/01/25 05:43:14;;;;;;;24.58;14.07;;;5.50;94.10;;;;;;5072756;28;20039;-67
2021/01/25 05:45:40;;;;;;;25.27;13.52;;;5.60;94.10;;;;;;5070080;28;20428;-67
2021/01/25 05:48:11;;;;;;;23.05;13.68;;;5.60;94.10;;;;;;5078995;28;20035;-68
2021/01/25 05:50:39;;;;;;;25.13;14.73;;;5.60;94.00;;;;;;5083030;28;20032;-68
2021/01/25 05:53:06;;;;;;;25.83;14.07;;;5.60;94.00;;;;;;5068929;28;20024;-68
2021/01/25 05:55:33;;;;;;;24.73;14.27;;;5.60;94.10;;;;;;5072062;28;20428;-68
2021/01/25 05:57:59;;;;;;;25.13;14.93;;;5.60;94.00;;;;;;5068025;28;20052;-68
2021/01/25 06:00:27;;;;;;;26.92;14.48;;;5.60;94.00;;;;;;5071218;28;20031;-68
2021/01/25 06:02:53;;;;;;;25.10;14.52;;;5.60;94.00;;;;;;5069107;28;20032;-68
2021/01/25 06:05:30;;;;;;;26.48;14.52;;;5.70;94.10;;;;;;5087485;28;20483;-68
2021/01/25 06:08:13;;;;;;;23.50;13.95;;;5.60;94.00;;;;;;5067945;28;20033;-68
2021/01/25 06:10:53;;;;;;;25.63;13.88;;;5.70;93.90;;;;;;5070029;28;20025;-68
2021/01/25 06:13:23;;;;;;;24.73;13.75;;;5.70;93.90;;;;;;5056074;28;20040;-68
2021/01/25 06:15:50;;;;;;;23.15;13.75;;;5.70;93.80;;;;;;5072413;28;20048;-68
2021/01/25 06:18:19;;;;;;;26.58;15.20;;;5.70;93.80;;;;;;5071947;28;20032;-68
2021/01/25 06:20:45;;;;;;;23.77;13.07;;;5.60;93.70;;;;;;5089026;28;20059;-68
2021/01/25 06:23:11;;;;;;;27.08;14.00;;;5.70;93.80;;;;;;5070359;28;20540;-68
2021/01/25 06:25:37;;;;;;;24.23;14.23;;;5.60;93.80;;;;;;5070045;28;20032;-68
2021/01/25 06:28:04;;;;;;;24.73;13.43;;;5.60;93.80;;;;;;5070284;28;20044;-68
2021/01/25 06:30:30;;;;;;;28.35;14.77;;;5.60;93.80;;;;;;5075376;28;20056;-68
2021/01/25 06:32:58;;;;;;;26.38;15.73;;;5.60;93.90;;;;;;5069290;28;20028;-68
2021/01/25 06:35:29;;;;;;;27.17;14.73;;;5.60;93.90;;;;;;5071069;28;20119;-68
2021/01/25 06:37:57;;;;;;;27.20;14.98;;;5.60;94.00;;;;;;5068481;28;20119;-68
2021/01/25 06:40:27;;;;;;;28.35;14.65;;;5.50;93.90;;;;;;5071104;28;20032;-68
2021/01/25 06:42:54;;;;;;;27.67;14.85;;;5.60;94.00;;;;;;5072049;28;20480;-68
2021/01/25 06:45:22;;;;;;;30.02;16.63;;;5.60;93.90;;;;;;5078727;28;20032;-68
2021/01/25 06:47:48;;;;;;;28.95;15.48;;;5.60;93.90;;;;;;5080421;28;20032;-68
2021/01/25 06:50:13;;;;;;;29.50;15.68;;;5.60;94.00;;;;;;5074218;28;20362;-68
2021/01/25 06:52:40;;;;;;;28.13;15.13;;;5.60;94.00;;;;;;5071019;28;20016;-68
2021/01/25 06:55:07;;;;;;;25.83;13.93;;;5.60;94.00;;;;;;5074066;28;20024;-68
2021/01/25 06:57:34;;;;;;;32.20;16.92;;;5.60;94.00;;;;;;5072376;28;20116;-68
2021/01/25 07:00:06;;;;;;;29.90;15.07;;;5.60;93.90;;;;;;5073616;28;20024;-68
2021/01/25 07:02:31;;;;;;;31.90;16.67;;;5.60;93.90;;;;;;5071428;28;20389;-68
2021/01/25 07:04:58;;;;;;;31.77;16.73;;;5.60;93.90;;;;;;5074500;28;20021;-67
2021/01/25 07:07:28;;;;;;;31.50;16.33;;;5.60;93.80;;;;;;5070976;28;20545;-68
2021/01/25 07:09:57;;;;;;;34.67;17.15;;;5.60;93.80;;;;;;5054101;28;20025;-67
2021/01/25 07:12:24;;;;;;;39.85;17.48;;;5.60;93.90;;;;;;5065887;28;20036;-68
2021/01/25 07:14:50;;;;;;;32.30;17.50;;;5.50;94.00;;;;;;5072205;28;20024;-68
2021/01/25 07:17:16;;;;;;;31.05;16.73;;;5.50;94.00;;;;;;5071538;28;20039;-68
2021/01/25 07:19:43;;;;;;;30.50;16.10;;;5.50;93.90;;;;;;5078870;28;20082;-68
2021/01/25 07:22:09;;;;;;;30.58;15.93;;;5.60;93.90;;;;;;5076485;28;20489;-67
2021/01/25 07:24:37;;;;;;;32.45;17.42;;;5.60;93.90;;;;;;5073982;28;20093;-68
2021/01/25 07:27:03;;;;;;;33.13;17.27;;;5.60;93.90;;;;;;5072513;28;20028;-68
2021/01/25 07:29:29;;;;;;;29.48;15.77;;;5.60;94.00;;;;;;5072956;28;20065;-68
2021/01/25 07:31:56;;;;;;;32.80;17.90;;;5.60;94.10;;;;;;5081225;28;20443;-68
2021/01/25 07:34:23;;;;;;;27.70;15.68;;;5.60;94.10;;;;;;5075230;28;20089;-69
2021/01/25 07:36:48;;;;;;;30.05;15.65;;;5.60;94.10;;;;;;5081138;28;20107;-68
2021/01/25 07:39:16;;;;;;;31.65;15.85;;;5.60;94.00;;;;;;5073408;28;20056;-68
2021/01/25 07:41:43;;;;;;;29.75;16.13;;;5.60;94.00;;;;;;5053523;28;20519;-68
2021/01/25 07:44:10;;;;;;;27.52;16.05;;;5.70;94.00;;;;;;5073549;28;20556;-68
2021/01/25 07:46:36;;;;;;;27.20;14.65;;;5.70;93.90;;;;;;5070491;28;20064;-68
2021/01/25 07:49:03;;;;;;;27.70;14.85;;;5.70;93.90;;;;;;5071563;28;20060;-67
2021/01/25 07:51:33;;;;;;;27.08;15.40;;;5.60;93.90;;;;;;5070382;28;20036;-68
2021/01/25 07:53:59;;;;;;;28.48;14.82;;;5.70;93.90;;;;;;5073301;28;20116;-67
2021/01/25 07:56:25;;;;;;;25.80;14.57;;;5.70;93.80;;;;;;5071352;28;20471;-68
2021/01/25 07:59:06;;;;;;;29.08;15.48;;;5.70;93.80;;;;;;5072899;28;20067;-67
2021/01/25 08:01:41;;;;;;;28.13;14.80;;;5.70;93.80;;;;;;5071766;28;20043;-67
2021/01/25 08:04:11;;;;;;;26.15;14.40;;;5.60;93.60;;;;;;5073002;28;20115;-67
2021/01/25 08:06:37;;;;;;;27.95;14.70;;;5.70;93.60;;;;;;5065042;28;20063;-68
2021/01/25 08:09:04;;;;;;;29.13;15.18;;;5.70;93.60;;;;;;5078615;28;20502;-68
2021/01/25 08:11:31;;;;;;;25.65;14.50;;;5.70;93.60;;;;;;5074396;28;20401;-68
2021/01/25 08:14:18;;;;;;;29.17;14.70;;;5.70;93.50;;;;;;5076071;28;20070;-68
2021/01/25 08:16:52;;;;;;;28.63;15.10;;;5.60;93.60;;;;;;5071481;28;20036;-68
2021/01/25 08:19:24;;;;;;;28.20;14.10;;;5.60;93.50;;;;;;5072942;28;20031;-68
2021/01/25 08:22:04;;;;;;;25.67;13.80;;;5.70;93.60;;;;;;5070356;28;20036;-68
2021/01/25 08:24:31;;;;;;;27.40;14.63;;;5.60;93.50;;;;;;5072952;28;20025;-68
2021/01/25 08:27:06;;;;;;;23.77;12.40;;;5.70;93.50;;;;;;5073072;28;20385;-67
2021/01/25 08:29:32;;;;;;;27.25;14.50;;;5.70;93.50;;;;;;5062809;28;20050;-71
2021/01/25 08:31:57;;;;;;;28.95;14.77;;;5.70;93.40;;;;;;5063103;28;20028;-70
2021/01/25 08:34:23;;;;;;;27.95;15.38;;;5.70;93.40;;;;;;5072439;28;20021;-70
2021/01/25 08:37:08;;;;;;;25.52;13.75;;;5.70;93.40;;;;;;5070297;28;20044;-70
2021/01/25 08:39:43;;;;;;;25.67;13.95;;;5.80;93.30;;;;;;5069494;28;20021;-70
2021/01/25 08:42:31;;;;;;;24.25;13.55;;;5.80;93.20;;;;;;5061777;28;20046;-68
2021/01/25 08:45:03;;;;;;;23.55;12.80;;;5.80;93.10;;;;;;5070292;28;20105;-68
2021/01/25 08:47:31;;;;;;;28.63;14.45;;;5.80;93.00;;;;;;5071009;28;20039;-69
2021/01/25 08:49:57;;;;;;;27.63;14.55;;;5.80;93.00;;;;;;5072430;28;20032;-68
2021/01/25 08:52:41;;;;;;;24.67;13.30;;;5.80;93.00;;;;;;5072516;28;20028;-69
2021/01/25 08:55:23;;;;;;;26.80;13.80;;;5.80;92.90;;;;;;5071983;28;20119;-69
2021/01/25 08:57:49;;;;;;;25.13;14.07;;;5.70;93.00;;;;;;5068860;28;20362;-69
2021/01/25 09:00:17;;;;;;;26.60;12.98;;;5.70;92.90;;;;;;5084738;28;20065;-69
2021/01/25 09:02:44;;;;;;;25.15;13.20;;;5.70;93.00;;;;;;5073632;28;20033;-69
2021/01/25 09:05:12;;;;;;;23.20;13.52;;;5.80;93.00;;;;;;5077557;28;20016;-68
2021/01/25 09:07:37;;;;;;;21.23;11.75;;;5.70;92.90;;;;;;5069754;28;20178;-69
2021/01/25 09:10:04;;;;;;;26.73;12.45;;;5.80;93.00;;;;;;5081920;28;20118;-68
2021/01/25 09:12:30;;;;;;;31.33;14.73;;;5.80;93.00;;;;;;5073712;28;20033;-67
2021/01/25 09:14:55;;;;;;;23.77;13.02;;;5.80;93.00;;;;;;5080579;28;20024;-68
2021/01/25 09:17:22;;;;;;;24.52;13.20;;;5.80;93.10;;;;;;5076015;28;20036;-68
2021/01/25 09:19:48;;;;;;;25.02;13.27;;;5.90;93.00;;;;;;5070413;28;20029;-69
2021/01/25 09:22:14;;;;;;;25.83;13.63;;;5.90;92.90;;;;;;5067058;28;20124;-68
2021/01/25 09:24:39;;;;;;;29.23;14.05;;;5.90;92.90;;;;;;5065747;28;20107;-68
2021/01/25 09:27:06;;;;;;;26.08;12.90;;;5.90;92.80;;;;;;5069735;28;20162;-69
2021/01/25 09:29:31;;;;;;;27.35;13.93;;;5.90;92.80;;;;;;5059906;28;20028;-69
2021/01/25 09:31:57;;;;;;;25.45;13.68;;;5.90;92.90;;;;;;5059987;28;20105;-67
2021/01/25 09:34:24;;;;;;;23.20;13.80;;;5.90;92.90;;;;;;5091710;28;20020;-73
2021/01/25 09:36:49;;;;;;;27.30;14.18;;;6.00;92.90;;;;;;5070581;28;20033;-72
2021/01/25 09:39:16;;;;;;;24.48;13.30;;;6.00;92.80;;;;;;5071305;28;20021;-71
2021/01/25 09:41:46;;;;;;;25.33;13.50;;;6.10;92.80;;;;;;5067397;28;20029;-69
2021/01/25 09:44:14;;;;;;;26.10;12.90;;;6.10;92.90;;;;;;5072151;28;20477;-69
2021/01/25 09:46:41;;;;;;;23.33;12.25;;;6.10;92.60;;;;;;5057686;28;20107;-69
2021/01/25 09:49:11;;;;;;;25.70;13.63;;;6.20;92.50;;;;;;5079270;28;20021;-69
2021/01/25 09:51:37;;;;;;;23.45;12.88;;;6.20;92.50;;;;;;5068102;28;20028;-69
2021/01/25 09:54:02;;;;;;;23.27;13.20;;;6.30;92.50;;;;;;5071455;28;20016;-69
2021/01/25 09:56:28;;;;;;;23.35;13.05;;;6.30;92.40;;;;;;5068886;28;20381;-69
2021/01/25 09:58:54;;;;;;;27.10;13.18;;;6.30;92.40;;;;;;5064611;28;20024;-69
2021/01/25 10:01:21;;;;;;;26.67;13.25;;;6.40;92.40;;;;;;5061676;28;20025;-69
2021/01/25 10:03:46;;;;;;;26.92;14.75;;;6.40;92.30;;;;;;5068893;28;20021;-69
2021/01/25 10:06:12;;;;;;;27.48;12.80;;;6.40;92.20;;;;;;5069571;28;20024;-69
2021/01/25 10:08:37;;;;;;;19.42;10.70;;;6.40;92.00;;;;;;5071028;28;20495;-69
2021/01/25 10:11:07;;;;;;;20.27;11.45;;;6.50;91.90;;;;;;5069891;28;20043;-69
2021/01/25 10:13:33;;;;;;;22.13;12.18;;;6.50;91.90;;;;;;5069110;28;20039;-69
2021/01/25 10:15:59;;;;;;;19.50;11.73;;;6.60;91.80;;;;;;5069009;28;20039;-69
2021/01/25 10:18:25;;;;;;;20.70;11.80;;;6.60;91.70;;;;;;5071418;28;20437;-69
2021/01/25 10:20:50;;;;;;;21.52;11.65;;;6.60;91.50;;;;;;5072751;28;20033;-69
2021/01/25 10:23:16;;;;;;;22.33;11.23;;;6.60;91.60;;;;;;5074548;28;20047;-69
2021/01/25 10:25:41;;;;;;;22.83;11.48;;;6.60;91.50;;;;;;5075007;28;20469;-69
2021/01/25 10:28:07;;;;;;;21.58;12.25;;;6.60;91.50;;;;;;5062166;28;20020;-69
2021/01/25 10:30:33;;;;;;;21.67;11.65;;;6.60;91.50;;;;;;5075049;28;20013;-69
2021/01/25 10:32:59;;;;;;;20.58;11.68;;;6.60;91.50;;;;;;5073115;28;20142;-68
2021/01/25 10:35:25;;;;;;;20.42;12.13;;;6.60;91.30;;;;;;5073924;28;20033;-69
2021/01/25 10:37:51;;;;;;;19.80;11.57;;;6.60;91.30;;;;;;5073657;28;20044;-69
2021/01/25 10:40:17;;;;;;;23.15;11.15;;;6.60;91.30;;;;;;5074579;28;20035;-68
2021/01/25 10:42:43;;;;;;;20.42;11.30;;;6.60;91.30;;;;;;5070666;28;20034;-69
2021/01/25 10:45:10;;;;;;;24.95;12.95;;;6.60;91.20;;;;;;5073587;28;20477;-68
2021/01/25 10:47:36;;;;;;;23.02;10.73;;;6.70;91.20;;;;;;5073412;28;20064;-68
2021/01/25 10:50:04;;;;;;;24.92;12.25;;;6.70;91.10;;;;;;5077047;28;20032;-69
2021/01/25 10:52:29;;;;;;;16.63;9.38;;;6.70;90.90;;;;;;5076564;28;20358;-68
2021/01/25 10:54:55;;;;;;;19.05;9.68;;;6.70;91.00;;;;;;5063993;28;20050;-68
2021/01/25 10:57:20;;;;;;;19.52;9.57;;;6.60;90.90;;;;;;5067183;28;20045;-71
2021/01/25 10:59:46;;;;;;;17.33;9.50;;;6.60;90.70;;;;;;5056491;28;20523;-67
2021/01/25 11:02:12;;;;;;;17.35;9.75;;;6.60;90.70;;;;;;5078439;28;20158;-69
2021/01/25 11:04:37;;;;;;;16.17;9.30;;;6.70;90.90;;;;;;5074530;28;20059;-68
2021/01/25 11:07:03;;;;;;;18.63;9.88;;;6.60;90.70;;;;;;5071580;28;20125;-69
2021/01/25 11:09:29;;;;;;;19.88;10.30;;;6.70;90.60;;;;;;5072096;28;20119;-70
2021/01/25 11:11:54;;;;;;;16.42;9.18;;;6.70;90.60;;;;;;5074429;28;20039;-68
2021/01/25 11:14:20;;;;;;;20.15;10.38;;;6.70;90.60;;;;;;5073849;28;20024;-69
2021/01/25 11:16:45;;;;;;;19.52;9.90;;;6.80;90.60;;;;;;5064119;28;20033;-68
2021/01/25 11:19:11;;;;;;;16.25;9.50;;;6.80;90.40;;;;;;5072694;28;20025;-68
2021/01/25 11:21:38;;;;;;;18.20;9.13;;;6.80;90.30;;;;;;5073621;28;20039;-70
2021/01/25 11:24:05;;;;;;;18.10;9.93;;;6.90;90.20;;;;;;5071150;28;20043;-69
2021/01/25 11:26:36;;;;;;;18.05;9.43;;;6.90;90.20;;;;;;5069813;28;20298;-69
2021/01/25 11:29:01;;;;;;;15.13;9.13;;;6.90;90.00;;;;;;5069717;28;20072;-70
2021/01/25 11:31:27;;;;;;;17.15;8.05;;;6.90;90.00;;;;;;5073604;28;20031;-69
2021/01/25 11:33:52;;;;;;;17.15;8.98;;;6.90;89.80;;;;;;5072908;28;20032;-69
2021/01/25 11:36:18;;;;;;;15.85;8.90;;;6.90;89.90;;;;;;5071576;28;20119;-69
2021/01/25 11:38:43;;;;;;;15.55;9.15;;;6.90;89.80;;;;;;5070823;28;20024;-69
2021/01/25 11:41:09;;;;;;;15.27;9.13;;;6.90;90.20;;;;;;5073091;28;20020;-69
2021/01/25 11:43:34;;;;;;;18.52;9.00;;;6.90;90.00;;;;;;5073401;28;20456;-69
2021/01/25 11:45:59;;;;;;;19.90;10.20;;;6.90;89.90;;;;;;5078526;28;20078;-69
2021/01/25 11:48:25;;;;;;;19.35;9.90;;;6.90;89.90;;;;;;5073645;28;20025;-69
2021/01/25 11:50:52;;;;;;;17.67;10.05;;;6.90;89.70;;;;;;5072804;28;20033;-69
2021/01/25 11:53:18;;;;;;;16.90;9.85;;;6.90;89.40;;;;;;5070380;28;20468;-69
2021/01/25 11:55:44;;;;;;;18.65;10.82;;;6.90;89.30;;;;;;5072158;28;20063;-69
2021/01/25 11:58:10;;;;;;;20.00;9.77;;;6.90;89.20;;;;;;5072411;28;20035;-68
2021/01/25 12:00:36;;;;;;;18.30;10.05;;;6.90;89.00;;;;;;5073193;28;20095;-69
2021/01/25 12:03:02;;;;;;;18.88;10.38;;;6.80;89.10;;;;;;5071735;28;20112;-69
2021/01/25 12:05:28;;;;;;;20.85;11.02;;;6.80;89.00;;;;;;5070833;28;20078;-70
2021/01/25 12:07:53;;;;;;;18.75;10.20;;;6.80;88.40;;;;;;5073187;28;20029;-69
2021/01/25 12:10:19;;;;;;;20.15;11.70;;;6.70;88.70;;;;;;5054741;28;20107;-69
2021/01/25 12:12:44;;;;;;;21.10;10.65;;;6.70;88.90;;;;;;5071750;28;20038;-69
2021/01/25 12:15:10;;;;;;;21.65;11.25;;;6.60;88.90;;;;;;5070811;28;20028;-69
2021/01/25 12:17:36;;;;;;;21.33;11.25;;;6.60;88.90;;;;;;5073422;28;20039;-68
2021/01/25 12:20:02;;;;;;;19.88;11.05;;;6.60;89.00;;;;;;5070234;28;20441;-69
2021/01/25 12:22:27;;;;;;;20.95;10.45;;;6.60;88.80;;;;;;5053786;28;20060;-69
2021/01/25 12:24:53;;;;;;;19.10;10.90;;;6.50;89.00;;;;;;5064810;28;20064;-69
2021/01/25 12:27:18;;;;;;;17.42;10.45;;;6.50;89.00;;;;;;5072116;28;20562;-69
2021/01/25 12:29:44;;;;;;;23.48;11.73;;;6.60;89.20;;;;;;5064911;28;20028;-69
2021/01/25 12:32:09;;;;;;;23.15;10.85;;;6.60;89.10;;;;;;5067814;28;20025;-68
2021/01/25 12:34:36;;;;;;;19.00;11.15;;;6.60;89.20;;;;;;5071741;28;20369;-68
2021/01/25 12:37:02;;;;;;;16.92;11.00;;;6.60;89.30;;;;;;5067894;28;20037;-69
2021/01/25 12:39:28;;;;;;;22.13;10.75;;;6.60;89.30;;;;;;5070240;28;20035;-69